Terminal Aerodrome Forecast
Issued by NWS Upton, NY

Home | Current Version | Previous Version | Text Only | Print | Product List | Glossary On
Versions: 1 2 3 4 5 6 7 8 9 10 11 12 13 14 15 16 17 18 19 20 21 22 23 24 25 26 27 28 29 30 31 32 33
000
FTUS41 KOKX 182300
TAFLGA
TAF
KLGA 182338Z 1900/1924 17005KT P6SM SCT170 BKN250
     FM190200 20005KT P6SM FEW020 BKN200
     FM190600 24005KT P6SM FEW020 BKN250
     FM190900 29007KT P6SM SCT250
     FM191200 32010KT P6SM FEW070
     FM191400 33014G21KT P6SM SKC=

USA.gov is the U.S. government's official web portal to all federal, state and local government web resources and services.